Pays
Station

 

Conditions  météo  pour  Kingston/Norman Manley  -  Jamaïque    Jamaïque

  
28 °C
    
 
 

METAR pour Kingston/Norman Manley :

MKJP 212200Z 27006KT 9999 FEW022 28/20 Q1015

 

Voici le bulletin pour Kingston/Norman Manley - Jamaïque.
 
Le bulletin a été fait il y a 11 minutes, à 22:00 UTC .
Le vent soufflait à la vitesse de 3.1 mètres par seconde de Ouest (270°).
 
La température était de 28 °C, avec un point de rosée à 20 °C.
La température ressentie était de 29 °C.
 
La pression atmosphérique était de 1015 hPa.
L'humidité relative était de 61.9%.
 
Il y avait 1 à 2/8ème de nébulosité à une hauteur de 671 mètres.
 
La visibilité globale était de supérieure à 10 kilomètres.
 

 
 
 

Pays :   A   B   C   D   E   F   G   H   I   J   K   L   M   N   O   P   Q   R   S   T   U   V   W   Y   Z

 

Partenaires :  Info Météo avec Met'info
Météo Marine avec MeteoMarine.net
Infos Site  |  Infos Légales  |  Crédits  |  Confidentialité
Contactez-nous  |  Ajouter aux favoris
© 2013-2019 METAR - Tous droits réservés